Time;durP1;ratioP1;P1;durP2;ratioP2;P2;SDS_P1;SDS_P2;PMS_P1;PMS_P2;Temp;Humidity;BMP_temperature;BMP_pressure;BME280_temperature;BME280_humidity;BME280_pressure;Samples;Min_cycle;Max_cycle;Signal;HPM_P1;HPM_P2
2022/11/20 00:00:34;;;;;;;27.60;16.43;;;10.50;46.80;;;;;;5064668;28;20449;-83
2022/11/20 00:03:02;;;;;;;26.47;16.63;;;10.50;46.60;;;;;;5065600;28;20549;-82
2022/11/20 00:05:33;;;;;;;32.50;16.53;;;10.70;47.50;;;;;;5071679;28;20469;-83
2022/11/20 00:08:01;;;;;;;27.80;16.63;;;10.80;46.90;;;;;;5058015;28;20450;-82
2022/11/20 00:10:29;;;;;;;26.97;16.27;;;10.80;46.00;;;;;;5057692;28;20564;-82
2022/11/20 00:12:58;;;;;;;27.40;16.77;;;10.70;46.70;;;;;;5063289;28;20454;-82
2022/11/20 00:15:27;;;;;;;26.33;16.13;;;10.70;46.40;;;;;;5068770;28;20469;-82
2022/11/20 00:17:55;;;;;;;29.13;16.53;;;10.60;46.60;;;;;;5063884;28;20474;-83
2022/11/20 00:20:23;;;;;;;27.80;16.70;;;10.60;46.60;;;;;;5066824;28;20445;-83
2022/11/20 00:22:52;;;;;;;27.60;16.53;;;10.50;46.80;;;;;;5071595;28;20453;-82
2022/11/20 00:25:20;;;;;;;24.10;14.60;;;10.40;46.70;;;;;;5060810;28;20478;-83
2022/11/20 00:27:49;;;;;;;28.90;16.93;;;10.60;46.70;;;;;;5065628;28;20448;-81
2022/11/20 00:30:17;;;;;;;23.80;15.47;;;10.60;47.10;;;;;;5057864;28;20454;-83
2022/11/20 00:32:45;;;;;;;25.83;15.00;;;10.50;46.50;;;;;;5061731;28;20460;-81
2022/11/20 00:35:13;;;;;;;26.10;15.70;;;10.50;46.50;;;;;;5078393;28;20501;-82
2022/11/20 00:37:41;;;;;;;25.77;15.20;;;10.50;46.70;;;;;;5069978;28;20474;-82
2022/11/20 00:40:11;;;;;;;23.83;14.37;;;10.40;47.20;;;;;;5064247;28;20450;-82
2022/11/20 00:42:39;;;;;;;24.20;13.77;;;10.40;47.00;;;;;;5064599;28;20554;-83
2022/11/20 00:45:08;;;;;;;25.80;14.20;;;10.70;47.20;;;;;;5074604;28;20473;-83
2022/11/20 00:47:36;;;;;;;21.93;13.60;;;10.70;47.20;;;;;;5079921;28;20449;-82
2022/11/20 00:50:05;;;;;;;20.07;13.23;;;10.90;46.50;;;;;;5069534;28;20533;-82
2022/11/20 00:52:33;;;;;;;23.80;14.13;;;10.90;46.30;;;;;;5073205;28;20461;-80
2022/11/20 00:55:01;;;;;;;24.37;14.20;;;11.00;46.50;;;;;;5068694;28;20462;-82
2022/11/20 00:57:30;;;;;;;22.10;13.57;;;11.10;46.50;;;;;;5069506;28;20534;-83
2022/11/20 00:59:58;;;;;;;24.13;15.00;;;11.10;46.30;;;;;;5066224;28;20561;-82
2022/11/20 01:02:25;;;;;;;21.90;13.43;;;11.20;46.00;;;;;;5077076;28;20454;-82
2022/11/20 01:04:53;;;;;;;24.10;14.37;;;11.10;46.50;;;;;;5063725;28;20464;-82
2022/11/20 01:07:21;;;;;;;23.93;13.83;;;11.30;45.90;;;;;;5072324;28;20518;-82
2022/11/20 01:09:49;;;;;;;23.60;14.17;;;11.20;46.00;;;;;;5072134;28;20453;-81
2022/11/20 01:12:17;;;;;;;25.40;14.50;;;11.40;46.00;;;;;;5076858;28;20457;-82
2022/11/20 01:14:48;;;;;;;25.83;15.13;;;11.40;46.30;;;;;;5070420;28;20447;-80
2022/11/20 01:17:16;;;;;;;20.87;13.50;;;11.50;46.00;;;;;;5065753;28;20513;-83
2022/11/20 01:19:44;;;;;;;23.17;14.13;;;11.60;45.60;;;;;;5074820;28;20473;-82
2022/11/20 01:22:12;;;;;;;24.03;13.50;;;11.50;45.60;;;;;;5071643;28;20453;-82
2022/11/20 01:24:40;;;;;;;21.93;14.10;;;11.40;45.50;;;;;;5076058;28;20451;-83
2022/11/20 01:27:08;;;;;;;20.60;13.53;;;11.10;45.80;;;;;;5064398;28;20486;-82
2022/11/20 01:29:36;;;;;;;23.33;14.30;;;11.20;47.30;;;;;;5066341;28;20450;-83
2022/11/20 01:32:05;;;;;;;26.70;14.10;;;11.20;46.00;;;;;;5074468;28;20948;-82
2022/11/20 01:34:33;;;;;;;22.10;13.90;;;11.10;45.80;;;;;;5067964;28;20441;-82
2022/11/20 01:37:01;;;;;;;25.33;14.60;;;11.10;46.40;;;;;;5064162;28;20462;-82
2022/11/20 01:39:29;;;;;;;23.20;13.57;;;11.30;46.50;;;;;;5072586;28;20465;-82
2022/11/20 01:44:58;;;;;;;26.60;13.93;;;11.50;45.90;;;;;;5074809;28;20457;-82
2022/11/20 01:47:30;;;;;;;26.47;14.30;;;11.60;45.70;;;;;;5068609;28;20455;-83
2022/11/20 01:50:00;;;;;;;24.97;14.57;;;11.60;45.70;;;;;;5067170;28;20457;-81
2022/11/20 01:52:30;;;;;;;22.00;14.00;;;11.70;45.70;;;;;;5062776;28;20529;-82
2022/11/20 01:55:01;;;;;;;23.30;13.80;;;11.60;45.60;;;;;;5068898;28;20438;-82
2022/11/20 01:57:29;;;;;;;25.03;14.10;;;11.60;45.60;;;;;;5071833;28;20458;-83
2022/11/20 02:00:00;;;;;;;24.80;14.60;;;11.60;45.60;;;;;;5071778;28;20556;-82
2022/11/20 02:02:29;;;;;;;28.20;15.10;;;11.50;45.40;;;;;;5062340;28;20458;-82
2022/11/20 02:04:58;;;;;;;21.70;13.00;;;11.60;45.90;;;;;;5075020;28;20445;-83
2022/11/20 02:07:26;;;;;;;23.53;14.60;;;11.60;45.60;;;;;;5071660;28;21023;-83
2022/11/20 02:09:54;;;;;;;22.13;13.80;;;11.70;45.50;;;;;;5070324;28;20458;-83
2022/11/20 02:15:11;;;;;;;24.80;14.40;;;11.50;45.20;;;;;;5074609;28;20481;-83
2022/11/20 02:17:40;;;;;;;25.70;15.50;;;11.40;46.20;;;;;;5072017;28;20450;-83
2022/11/20 02:20:09;;;;;;;26.77;14.03;;;11.50;46.00;;;;;;5070950;28;20470;-83
2022/11/20 02:22:39;;;;;;;24.23;14.77;;;11.60;45.50;;;;;;5072656;28;20453;-83
2022/11/20 02:25:08;;;;;;;23.20;14.00;;;11.60;45.50;;;;;;5064487;28;20470;-81
2022/11/20 02:27:36;;;;;;;20.80;13.07;;;11.50;45.90;;;;;;5067730;28;20454;-83
2022/11/20 02:30:07;;;;;;;25.10;15.27;;;11.60;45.60;;;;;;5070701;28;20446;-82
2022/11/20 02:32:36;;;;;;;23.70;14.67;;;11.40;45.70;;;;;;5069995;28;20455;-83
2022/11/20 02:35:08;;;;;;;21.57;13.40;;;11.50;46.20;;;;;;5063835;28;20433;-82
2022/11/20 02:37:37;;;;;;;23.90;13.53;;;11.50;45.70;;;;;;5074600;28;20446;-83
2022/11/20 02:40:06;;;;;;;23.93;14.53;;;11.50;45.70;;;;;;5067474;28;20469;-82
2022/11/20 02:42:35;;;;;;;19.63;12.63;;;11.50;45.60;;;;;;5063766;28;20454;-82
2022/11/20 02:45:03;;;;;;;24.90;13.03;;;11.20;45.60;;;;;;5065950;28;20457;-81
2022/11/20 02:47:31;;;;;;;19.83;12.07;;;11.00;46.10;;;;;;5058305;28;20454;-82
2022/11/20 02:49:59;;;;;;;20.33;12.57;;;10.80;46.30;;;;;;5071932;28;20437;-81
2022/11/20 02:52:27;;;;;;;21.10;12.57;;;10.70;47.00;;;;;;5064514;28;20449;-81
2022/11/20 02:54:55;;;;;;;21.23;12.37;;;10.80;46.80;;;;;;5071173;28;20456;-80
2022/11/20 02:57:23;;;;;;;18.30;11.03;;;11.00;47.00;;;;;;5066605;28;20446;-82
2022/11/20 02:59:53;;;;;;;18.73;11.87;;;10.90;45.90;;;;;;5072925;28;20496;-82
2022/11/20 03:02:21;;;;;;;17.03;11.00;;;10.70;46.40;;;;;;5070334;28;20474;-82
2022/11/20 03:04:49;;;;;;;17.43;11.30;;;10.50;46.70;;;;;;5073584;28;20453;-82
2022/11/20 03:07:17;;;;;;;15.40;10.50;;;10.50;46.80;;;;;;5073084;28;20458;-83
2022/11/20 03:09:44;;;;;;;17.37;10.87;;;10.50;46.70;;;;;;5071878;28;20521;-82
2022/11/20 03:12:12;;;;;;;15.93;10.83;;;10.60;47.10;;;;;;5068334;28;20449;-82
2022/11/20 03:14:41;;;;;;;19.20;11.20;;;10.60;46.70;;;;;;5071772;28;20450;-82
2022/11/20 03:17:10;;;;;;;16.50;10.60;;;10.70;46.80;;;;;;5071983;28;20466;-82
2022/11/20 03:19:38;;;;;;;16.80;9.90;;;10.80;46.30;;;;;;5072274;28;20471;-81
2022/11/20 03:22:06;;;;;;;16.77;10.83;;;10.60;46.20;;;;;;5073868;28;20541;-81
2022/11/20 03:24:34;;;;;;;16.37;9.87;;;10.50;46.50;;;;;;5073059;28;20536;-82
2022/11/20 03:27:02;;;;;;;16.80;10.90;;;10.50;47.00;;;;;;5071773;28;20480;-82
2022/11/20 03:29:30;;;;;;;16.50;10.03;;;10.60;46.50;;;;;;5066121;28;20459;-82
2022/11/20 03:31:58;;;;;;;15.83;10.60;;;10.50;46.40;;;;;;5067934;28;20449;-80
2022/11/20 03:34:27;;;;;;;16.27;9.83;;;10.50;46.60;;;;;;5071719;28;20451;-80
2022/11/20 03:36:55;;;;;;;15.17;9.63;;;10.50;46.60;;;;;;5071123;28;20477;-82
2022/11/20 03:39:23;;;;;;;15.83;10.00;;;10.40;46.70;;;;;;5067944;28;21003;-81
2022/11/20 03:41:51;;;;;;;16.40;10.20;;;10.30;46.90;;;;;;5082941;28;20454;-82
2022/11/20 03:44:21;;;;;;;13.73;9.03;;;10.30;46.60;;;;;;5080753;28;20446;-83
2022/11/20 03:46:49;;;;;;;13.27;9.07;;;10.30;47.10;;;;;;5070347;28;20470;-82
2022/11/20 03:49:17;;;;;;;16.17;10.00;;;10.30;47.00;;;;;;5081256;28;20457;-82
2022/11/20 03:51:46;;;;;;;17.67;10.20;;;10.60;46.60;;;;;;5077944;28;20445;-82
2022/11/20 03:54:15;;;;;;;15.97;9.73;;;10.50;46.40;;;;;;5072982;28;20449;-82
2022/11/20 03:56:43;;;;;;;14.23;9.57;;;10.50;46.20;;;;;;5078161;28;20469;-82
2022/11/20 03:59:11;;;;;;;19.33;10.90;;;10.50;46.50;;;;;;5074243;28;20457;-81
2022/11/20 04:01:38;;;;;;;17.10;9.80;;;10.40;46.10;;;;;;5070890;28;20465;-82
2022/11/20 04:04:09;;;;;;;14.77;9.50;;;10.50;46.30;;;;;;5070017;28;20477;-80
2022/11/20 04:06:38;;;;;;;15.63;9.00;;;10.50;46.60;;;;;;5071408;28;20466;-81
2022/11/20 04:09:07;;;;;;;13.70;9.20;;;10.50;46.30;;;;;;5075796;28;20477;-81
2022/11/20 04:11:36;;;;;;;12.53;8.70;;;10.70;46.90;;;;;;5075647;28;20450;-80
2022/11/20 04:14:04;;;;;;;16.50;10.20;;;11.00;46.30;;;;;;5064882;28;20473;-81
2022/11/20 04:16:34;;;;;;;16.03;9.70;;;11.20;46.20;;;;;;5076596;28;20465;-81
2022/11/20 04:19:03;;;;;;;13.77;8.73;;;11.20;46.00;;;;;;5070088;28;20449;-82
2022/11/20 04:21:32;;;;;;;13.93;8.53;;;11.00;46.00;;;;;;5073099;28;20453;-81
2022/11/20 04:23:59;;;;;;;14.50;8.10;;;10.90;46.70;;;;;;5070343;28;20454;-80
2022/11/20 04:26:29;;;;;;;12.10;8.50;;;10.90;46.20;;;;;;5071300;28;20466;-82
2022/11/20 04:28:58;;;;;;;15.50;10.20;;;10.90;46.20;;;;;;5062692;28;20446;-83
2022/11/20 04:31:27;;;;;;;13.10;8.90;;;10.90;47.10;;;;;;5073686;28;20467;-82
2022/11/20 04:33:55;;;;;;;12.80;8.47;;;11.00;46.60;;;;;;5073696;28;20444;-81
2022/11/20 04:36:24;;;;;;;12.43;8.50;;;11.10;46.00;;;;;;5074180;28;20467;-82
2022/11/20 04:38:52;;;;;;;12.63;7.90;;;11.00;47.20;;;;;;5075813;28;20453;-82
2022/11/20 04:41:24;;;;;;;13.23;8.10;;;11.10;46.60;;;;;;5062743;28;20470;-82
2022/11/20 04:43:58;;;;;;;13.53;8.67;;;11.00;46.40;;;;;;5070369;28;20459;-82
2022/11/20 04:46:27;;;;;;;11.47;7.37;;;10.90;46.20;;;;;;5065319;28;20526;-82
2022/11/20 04:48:56;;;;;;;10.03;7.50;;;10.80;47.40;;;;;;5075002;28;20449;-83
2022/11/20 04:51:24;;;;;;;15.90;8.40;;;10.70;47.10;;;;;;5065880;28;20456;-82
2022/11/20 04:53:52;;;;;;;13.13;7.80;;;10.70;46.90;;;;;;5071698;28;20975;-82
2022/11/20 04:56:20;;;;;;;11.37;7.60;;;10.70;47.60;;;;;;5071295;28;20508;-79
2022/11/20 04:58:48;;;;;;;11.30;7.10;;;10.90;47.40;;;;;;5073646;28;20460;-83
2022/11/20 05:01:18;;;;;;;13.90;7.90;;;10.90;47.10;;;;;;5063725;28;20474;-83
2022/11/20 05:03:46;;;;;;;11.10;7.50;;;10.70;47.20;;;;;;5077071;28;20525;-82
2022/11/20 05:06:17;;;;;;;10.97;7.60;;;10.80;47.70;;;;;;5060704;28;20475;-81
2022/11/20 05:08:45;;;;;;;9.53;7.10;;;11.00;47.20;;;;;;5060860;28;21011;-81
2022/11/20 05:11:13;;;;;;;8.43;6.53;;;10.80;46.90;;;;;;5068087;28;20450;-81
2022/11/20 05:13:41;;;;;;;11.10;6.83;;;10.90;47.40;;;;;;5066175;28;20438;-82
2022/11/20 05:16:10;;;;;;;9.40;6.70;;;11.00;47.30;;;;;;5069771;28;20486;-82
2022/11/20 05:18:39;;;;;;;10.83;6.97;;;11.00;47.00;;;;;;5059101;28;20450;-82
2022/11/20 05:21:07;;;;;;;9.90;6.97;;;10.90;47.00;;;;;;5075126;28;20491;-82
2022/11/20 05:23:35;;;;;;;11.40;6.90;;;11.00;47.10;;;;;;5070875;28;20449;-82
2022/11/20 05:26:03;;;;;;;9.67;6.97;;;11.10;47.10;;;;;;5069307;28;20556;-82
2022/11/20 05:28:31;;;;;;;10.40;7.00;;;11.00;46.80;;;;;;5068482;28;20451;-81
2022/11/20 05:31:05;;;;;;;10.50;6.90;;;10.90;47.10;;;;;;5065303;28;20454;-82
2022/11/20 05:33:34;;;;;;;11.80;6.87;;;10.70;47.20;;;;;;5067555;28;20443;-82
2022/11/20 05:36:03;;;;;;;10.87;6.90;;;10.80;47.40;;;;;;5074249;28;20469;-80
2022/11/20 05:38:31;;;;;;;10.00;7.27;;;10.90;46.90;;;;;;5065704;28;20450;-82
2022/11/20 05:41:04;;;;;;;10.20;7.20;;;10.70;47.00;;;;;;5071026;28;20481;-83
2022/11/20 05:43:34;;;;;;;13.90;7.20;;;10.70;47.20;;;;;;5072049;28;20489;-81
2022/11/20 05:46:02;;;;;;;9.03;6.27;;;10.60;47.40;;;;;;5070386;28;20475;-81
2022/11/20 05:48:30;;;;;;;10.03;6.90;;;10.50;47.20;;;;;;5072139;28;20526;-81
2022/11/20 05:50:58;;;;;;;9.53;6.97;;;10.60;47.60;;;;;;5073452;28;20528;-82
2022/11/20 05:53:28;;;;;;;11.70;7.50;;;10.70;47.20;;;;;;5062220;28;20550;-83
2022/11/20 05:55:59;;;;;;;12.33;7.93;;;10.60;46.90;;;;;;5070266;28;20474;-82
2022/11/20 05:58:27;;;;;;;12.73;6.87;;;10.50;47.40;;;;;;5071259;28;20454;-82
2022/11/20 06:00:55;;;;;;;9.90;7.60;;;10.60;47.50;;;;;;5070662;28;20475;-83
2022/11/20 06:03:24;;;;;;;9.13;6.50;;;10.70;47.10;;;;;;5075661;28;20540;-82
2022/11/20 06:05:51;;;;;;;12.20;8.20;;;10.70;47.10;;;;;;5072963;28;20537;-82
2022/11/20 06:08:20;;;;;;;12.00;7.73;;;10.80;47.10;;;;;;5072312;28;20461;-82
2022/11/20 06:10:49;;;;;;;12.93;7.83;;;10.80;46.50;;;;;;5067195;28;20451;-82
2022/11/20 06:13:17;;;;;;;10.90;7.83;;;10.80;47.50;;;;;;5071626;28;20463;-81
2022/11/20 06:15:49;;;;;;;13.10;8.87;;;10.70;46.70;;;;;;5057615;28;20470;-81
2022/11/20 06:18:17;;;;;;;12.30;7.90;;;10.60;46.90;;;;;;5056971;28;20452;-80
2022/11/20 06:20:45;;;;;;;12.70;8.37;;;10.50;47.20;;;;;;5058809;28;20470;-81
2022/11/20 06:23:14;;;;;;;13.87;8.73;;;10.50;47.50;;;;;;5060720;28;20542;-79
2022/11/20 06:25:42;;;;;;;12.27;8.60;;;10.60;47.10;;;;;;5062058;28;20484;-80
2022/11/20 06:28:12;;;;;;;13.17;9.10;;;10.70;47.90;;;;;;5067756;28;20526;-81
2022/11/20 06:30:45;;;;;;;12.80;9.00;;;10.70;46.90;;;;;;5065905;28;20465;-81
2022/11/20 06:33:12;;;;;;;13.00;9.30;;;10.70;47.10;;;;;;5059959;28;20450;-82
2022/11/20 06:35:40;;;;;;;18.40;9.57;;;10.50;47.10;;;;;;5060856;28;20485;-82
2022/11/20 06:38:09;;;;;;;17.87;9.47;;;10.70;47.30;;;;;;5064216;28;20450;-82
2022/11/20 06:40:37;;;;;;;12.93;9.03;;;10.60;46.50;;;;;;5063530;28;20469;-81
2022/11/20 06:43:05;;;;;;;14.60;9.67;;;10.50;47.40;;;;;;5071210;28;20458;-81
2022/11/20 06:45:34;;;;;;;16.00;9.57;;;10.40;47.20;;;;;;5067860;28;20478;-82
2022/11/20 06:48:02;;;;;;;15.27;10.00;;;10.50;47.10;;;;;;5078702;28;20441;-82
2022/11/20 06:50:30;;;;;;;15.70;9.10;;;10.60;48.40;;;;;;5077628;28;20466;-81
2022/11/20 06:53:00;;;;;;;13.27;9.50;;;10.90;47.10;;;;;;5072032;28;20447;-82
2022/11/20 06:55:28;;;;;;;14.87;9.63;;;11.10;46.50;;;;;;5085980;28;20460;-83
2022/11/20 06:57:56;;;;;;;18.50;10.17;;;11.10;46.00;;;;;;5088658;28;20440;-84
2022/11/20 07:00:24;;;;;;;13.67;9.70;;;10.90;46.20;;;;;;5089170;28;20453;-84
2022/11/20 07:02:53;;;;;;;16.60;10.67;;;10.90;46.50;;;;;;5093130;28;20483;-84
2022/11/20 07:05:21;;;;;;;13.27;9.27;;;10.70;46.20;;;;;;5093258;28;20461;-84
2022/11/20 07:07:49;;;;;;;15.37;10.37;;;10.70;46.90;;;;;;5093757;28;20449;-84
2022/11/20 07:10:18;;;;;;;18.73;10.53;;;10.70;46.60;;;;;;5083871;28;20473;-84
2022/11/20 07:12:50;;;;;;;16.50;10.17;;;10.40;46.70;;;;;;5080272;28;20452;-84
2022/11/20 07:15:18;;;;;;;18.03;10.77;;;10.50;47.50;;;;;;5088715;28;20492;-83
2022/11/20 07:17:46;;;;;;;15.57;10.17;;;10.30;46.70;;;;;;5092482;28;20448;-83
2022/11/20 07:20:16;;;;;;;16.27;10.27;;;10.40;47.50;;;;;;5089651;28;20441;-83
2022/11/20 07:22:44;;;;;;;15.83;10.17;;;10.50;47.40;;;;;;5097084;28;20458;-82
2022/11/20 07:25:12;;;;;;;17.77;10.80;;;10.80;47.10;;;;;;5088428;28;20458;-84
2022/11/20 07:27:40;;;;;;;18.90;11.10;;;10.90;46.70;;;;;;5090917;28;20446;-83
2022/11/20 07:30:08;;;;;;;18.10;11.23;;;10.90;45.80;;;;;;5086394;28;20502;-81
2022/11/20 07:32:36;;;;;;;19.83;10.57;;;10.90;46.70;;;;;;5079560;28;20453;-83
2022/11/20 07:35:05;;;;;;;16.90;10.90;;;10.80;46.30;;;;;;5083630;28;20500;-83
2022/11/20 07:37:36;;;;;;;17.20;11.33;;;10.70;46.50;;;;;;5083995;28;20425;-83
2022/11/20 07:40:04;;;;;;;16.33;10.57;;;10.70;46.80;;;;;;5079406;28;20454;-81
2022/11/20 07:42:33;;;;;;;19.67;13.20;;;10.60;46.30;;;;;;5065898;28;20470;-80
2022/11/20 07:45:01;;;;;;;19.67;12.63;;;10.60;46.60;;;;;;5066569;28;20458;-81
2022/11/20 07:47:29;;;;;;;28.07;13.63;;;10.50;46.90;;;;;;5070409;28;20460;-81
2022/11/20 07:49:57;;;;;;;20.90;13.80;;;10.50;47.00;;;;;;5068958;28;20455;-81
2022/11/20 07:52:25;;;;;;;20.93;12.23;;;10.60;47.00;;;;;;5059294;28;20478;-80
2022/11/20 07:54:54;;;;;;;21.47;12.63;;;10.60;46.80;;;;;;5066973;28;20460;-82
2022/11/20 07:57:22;;;;;;;21.10;12.73;;;10.70;46.70;;;;;;5071126;28;20451;-81
2022/11/20 07:59:55;;;;;;;18.40;11.87;;;10.90;46.00;;;;;;5073146;28;20485;-82
2022/11/20 08:02:24;;;;;;;19.07;11.50;;;11.00;46.70;;;;;;5076657;28;20571;-81
2022/11/20 08:04:52;;;;;;;20.13;12.60;;;11.20;46.30;;;;;;5067507;28;20455;-82
2022/11/20 08:07:20;;;;;;;22.90;13.80;;;11.10;45.60;;;;;;5076706;28;20449;-82
2022/11/20 08:09:48;;;;;;;19.63;11.83;;;10.90;46.10;;;;;;5069616;28;20486;-81
2022/11/20 08:15:06;;;;;;;19.70;12.70;;;10.70;46.60;;;;;;5059461;28;20450;-82
2022/11/20 08:17:40;;;;;;;19.50;12.23;;;10.80;46.60;;;;;;5072459;28;20454;-82
2022/11/20 08:20:09;;;;;;;19.40;11.93;;;10.80;46.50;;;;;;5071027;28;20456;-82
2022/11/20 08:22:37;;;;;;;22.23;13.03;;;10.80;46.40;;;;;;5064575;28;20841;-83
2022/11/20 08:25:06;;;;;;;21.57;11.00;;;10.80;46.80;;;;;;5065713;28;20451;-82
2022/11/20 08:27:36;;;;;;;18.73;12.20;;;10.80;45.70;;;;;;5068645;28;20449;-80
2022/11/20 08:30:07;;;;;;;22.90;12.13;;;10.70;46.50;;;;;;5073158;28;20514;-81
2022/11/20 08:32:40;;;;;;;21.03;11.50;;;10.70;46.20;;;;;;5071472;28;20513;-82
2022/11/20 08:35:08;;;;;;;18.10;12.40;;;10.60;46.30;;;;;;5059557;28;20474;-83
2022/11/20 08:37:41;;;;;;;16.63;11.60;;;10.80;46.70;;;;;;5073502;28;20456;-82
2022/11/20 08:40:11;;;;;;;20.57;11.77;;;10.90;46.20;;;;;;5071116;28;20450;-82
2022/11/20 08:42:50;;;;;;;20.60;12.80;;;10.90;46.00;;;;;;5060745;28;20532;-81
2022/11/20 08:45:19;;;;;;;18.13;11.07;;;10.90;45.80;;;;;;5063894;28;20553;-81
2022/11/20 08:47:47;;;;;;;17.23;11.37;;;10.80;46.00;;;;;;5064487;28;20549;-82
2022/11/20 08:50:16;;;;;;;16.97;11.30;;;10.90;46.80;;;;;;5066944;28;20477;-81
2022/11/20 08:52:43;;;;;;;18.80;12.07;;;10.90;46.20;;;;;;5073368;28;20450;-83
2022/11/20 08:55:12;;;;;;;19.67;11.70;;;11.00;46.50;;;;;;5065603;28;20476;-83
2022/11/20 08:57:40;;;;;;;17.30;11.83;;;11.20;45.80;;;;;;5073408;28;20460;-82
2022/11/20 09:00:12;;;;;;;18.07;11.27;;;11.30;45.10;;;;;;5074662;28;20468;-81
2022/11/20 09:02:40;;;;;;;18.40;11.60;;;11.30;45.40;;;;;;5069494;28;20494;-82
2022/11/20 09:05:09;;;;;;;16.17;11.13;;;11.40;45.60;;;;;;5066450;28;20484;-81
2022/11/20 09:07:37;;;;;;;19.37;12.30;;;11.60;45.40;;;;;;5069549;28;20454;-83
2022/11/20 09:10:07;;;;;;;18.63;11.70;;;11.70;44.90;;;;;;5065543;28;20456;-83
2022/11/20 09:12:52;;;;;;;16.33;11.00;;;11.60;44.50;;;;;;5074533;28;20457;-83
2022/11/20 09:15:21;;;;;;;15.40;11.00;;;11.40;44.80;;;;;;5068285;28;20473;-83
2022/11/20 09:17:52;;;;;;;21.93;13.00;;;11.50;45.50;;;;;;5071318;28;20446;-83
2022/11/20 09:20:20;;;;;;;19.73;12.60;;;11.60;44.60;;;;;;5074439;28;20458;-82
2022/11/20 09:22:48;;;;;;;18.90;11.93;;;11.60;44.80;;;;;;5061419;28;20466;-83
2022/11/20 09:25:16;;;;;;;19.30;11.37;;;11.60;44.50;;;;;;5073629;28;20469;-81
2022/11/20 09:27:45;;;;;;;21.50;12.17;;;11.60;44.90;;;;;;5063403;28;20477;-82
2022/11/20 09:30:14;;;;;;;17.17;11.83;;;11.60;45.20;;;;;;5068507;28;20537;-81
2022/11/20 09:32:43;;;;;;;19.83;12.47;;;11.70;45.30;;;;;;5073568;28;20478;-83
2022/11/20 09:35:11;;;;;;;20.23;12.80;;;11.70;44.60;;;;;;5075241;28;20465;-82
2022/11/20 09:37:39;;;;;;;21.33;13.57;;;11.80;45.40;;;;;;5072261;28;20457;-82
2022/11/20 09:40:10;;;;;;;18.57;12.47;;;11.80;44.90;;;;;;5069931;28;20450;-83
2022/11/20 09:42:40;;;;;;;17.93;11.60;;;11.70;44.80;;;;;;5069449;28;20554;-80
2022/11/20 09:45:17;;;;;;;20.83;11.27;;;11.60;44.80;;;;;;5074560;28;20484;-81
2022/11/20 09:48:00;;;;;;;21.27;10.90;;;11.60;45.00;;;;;;5069170;28;20468;-81
2022/11/20 09:50:32;;;;;;;20.10;11.93;;;11.50;44.40;;;;;;5068620;28;20451;-81
2022/11/20 09:53:14;;;;;;;17.40;11.53;;;11.50;45.30;;;;;;5063256;28;20446;-82
2022/11/20 09:55:42;;;;;;;18.17;10.97;;;11.60;44.80;;;;;;5070260;28;20534;-82
2022/11/20 09:58:16;;;;;;;15.70;10.83;;;11.40;45.00;;;;;;5067306;28;20449;-82
2022/11/20 10:00:43;;;;;;;17.97;11.77;;;11.50;45.30;;;;;;5061254;28;20457;-82
2022/11/20 10:03:15;;;;;;;7.63;5.30;;;11.30;45.20;;;;;;5069107;28;20486;-78
2022/11/20 10:05:45;;;;;;;9.47;6.07;;;11.60;55.90;;;;;;5061198;28;20481;-79
2022/11/20 10:08:17;;;;;;;12.27;6.57;;;13.10;61.00;;;;;;5073489;28;20449;-79
2022/11/20 10:10:45;;;;;;;13.20;6.87;;;14.10;60.70;;;;;;5067065;28;20445;-81
2022/11/20 10:13:34;;;;;;;10.47;6.80;;;14.90;60.60;;;;;;5071968;28;20449;-79
2022/11/20 10:16:10;;;;;;;21.93;7.47;;;15.60;58.40;;;;;;5074444;28;20469;-81
2022/11/20 10:18:45;;;;;;;17.20;6.27;;;15.90;58.10;;;;;;5072472;28;20461;-80
2022/11/20 10:21:17;;;;;;;15.27;6.50;;;16.00;58.00;;;;;;5079307;28;20448;-78
2022/11/20 10:23:56;;;;;;;12.70;7.00;;;16.10;58.20;;;;;;5078217;28;20548;-79
2022/11/20 10:26:28;;;;;;;12.43;6.30;;;16.00;57.90;;;;;;5071369;28;20476;-79
2022/11/20 10:29:07;;;;;;;16.40;7.10;;;16.00;58.40;;;;;;5075407;28;20456;-79
2022/11/20 10:31:37;;;;;;;14.40;6.70;;;16.10;58.60;;;;;;5084701;28;20446;-80
2022/11/20 10:34:08;;;;;;;17.07;6.20;;;16.10;58.60;;;;;;5076245;28;20445;-82
2022/11/20 10:36:42;;;;;;;11.50;6.10;;;16.00;59.50;;;;;;5082345;28;20469;-81
2022/11/20 10:39:16;;;;;;;11.27;6.07;;;16.10;58.50;;;;;;5084776;28;20457;-83
2022/11/20 10:41:46;;;;;;;9.17;6.73;;;16.00;57.50;;;;;;5081457;28;20460;-80
2022/11/20 10:45:00;;;;;;;15.10;6.20;;;15.70;58.60;;;;;;5079199;28;20466;-81
2022/11/20 10:47:04;;;;;;;14.63;6.20;;;15.90;59.20;;;;;;5070030;28;21014;-81
2022/11/20 10:49:34;;;;;;;14.87;6.33;;;16.00;59.20;;;;;;5081504;28;20491;-82
2022/11/20 10:52:06;;;;;;;9.40;5.87;;;16.00;59.50;;;;;;5077718;28;20528;-80
2022/11/20 10:54:37;;;;;;;14.40;6.20;;;16.10;59.70;;;;;;5077021;28;20447;-79
2022/11/20 10:57:08;;;;;;;9.73;5.77;;;16.10;60.40;;;;;;5078034;28;20479;-79
2022/11/20 10:59:42;;;;;;;16.07;6.77;;;16.20;61.00;;;;;;5074822;28;20461;-81
2022/11/20 11:02:18;;;;;;;14.00;6.27;;;16.30;60.70;;;;;;5072124;28;20517;-80
2022/11/20 11:04:48;;;;;;;11.23;6.37;;;16.40;60.50;;;;;;5061501;28;20554;-80
2022/11/20 11:07:17;;;;;;;10.30;5.50;;;16.50;60.80;;;;;;5074130;28;20446;-82
2022/11/20 11:09:48;;;;;;;11.47;6.07;;;16.60;60.90;;;;;;5080682;28;20469;-82
2022/11/20 11:12:16;;;;;;;10.03;5.77;;;16.70;60.50;;;;;;5075613;28;20532;-81
2022/11/20 11:14:49;;;;;;;9.60;6.57;;;16.60;60.60;;;;;;5069453;28;20547;-81
2022/11/20 11:17:28;;;;;;;13.80;6.17;;;16.60;60.90;;;;;;5076222;28;20524;-80
2022/11/20 11:20:05;;;;;;;10.57;5.60;;;16.60;60.80;;;;;;5080783;28;20937;-80
2022/11/20 11:22:34;;;;;;;14.93;6.10;;;16.70;61.50;;;;;;5078628;28;20457;-80
2022/11/20 11:25:02;;;;;;;13.67;6.00;;;16.80;61.70;;;;;;5075828;28;20461;-85
2022/11/20 11:27:30;;;;;;;12.03;5.70;;;17.10;62.40;;;;;;5077337;28;20460;-86
2022/11/20 11:30:14;;;;;;;14.53;5.30;;;17.40;60.80;;;;;;5075191;28;20460;-80
2022/11/20 11:32:42;;;;;;;11.83;5.03;;;17.70;59.70;;;;;;5066767;28;20460;-80
2022/11/20 11:35:25;;;;;;;10.40;5.73;;;18.10;59.10;;;;;;5070382;28;20478;-81
2022/11/20 11:37:55;;;;;;;8.43;5.10;;;18.60;57.80;;;;;;5063491;28;20473;-80
2022/11/20 11:40:26;;;;;;;10.40;4.97;;;18.90;56.70;;;;;;5068779;28;20446;-79
2022/11/20 11:42:56;;;;;;;13.70;5.10;;;19.20;56.00;;;;;;5067554;28;20530;-81
2022/11/20 11:45:23;;;;;;;11.90;5.13;;;19.20;55.90;;;;;;5065234;28;20468;-82
2022/11/20 11:47:51;;;;;;;9.73;5.30;;;19.50;55.90;;;;;;5067434;28;20453;-83
2022/11/20 11:50:22;;;;;;;12.70;5.83;;;19.70;54.90;;;;;;5070810;28;20445;-82
2022/11/20 11:52:55;;;;;;;10.60;5.50;;;19.90;54.40;;;;;;5070257;28;20454;-82
2022/11/20 11:55:28;;;;;;;24.10;5.50;;;19.90;54.10;;;;;;5066607;28;20474;-82
2022/11/20 11:58:00;;;;;;;14.33;5.50;;;20.00;53.70;;;;;;5074858;28;20465;-82
2022/11/20 12:00:28;;;;;;;9.80;5.50;;;20.20;54.50;;;;;;5068186;28;20536;-81
2022/11/20 12:03:01;;;;;;;12.83;4.67;;;20.30;53.30;;;;;;5074291;28;20512;-78
2022/11/20 12:05:31;;;;;;;12.23;5.27;;;20.50;52.90;;;;;;5075240;28;20482;-80
2022/11/20 12:08:01;;;;;;;19.80;5.63;;;20.50;52.30;;;;;;5055142;28;20496;-79
2022/11/20 12:10:41;;;;;;;11.33;5.60;;;20.50;52.20;;;;;;5063792;28;20461;-78
2022/11/20 12:13:17;;;;;;;11.77;7.07;;;20.40;51.90;;;;;;5066341;28;20467;-80
2022/11/20 12:15:46;;;;;;;19.53;9.30;;;20.20;50.70;;;;;;5077483;28;20478;-79
2022/11/20 12:18:16;;;;;;;23.27;9.97;;;19.90;50.60;;;;;;5072577;28;20461;-77
2022/11/20 12:20:49;;;;;;;24.67;11.70;;;19.60;51.10;;;;;;5077607;28;20461;-81
2022/11/20 12:23:19;;;;;;;19.63;11.47;;;19.30;51.30;;;;;;5077224;28;20457;-79
2022/11/20 12:25:48;;;;;;;20.53;11.60;;;19.20;51.90;;;;;;5078339;28;20471;-80
2022/11/20 12:28:22;;;;;;;26.33;12.60;;;19.00;52.00;;;;;;5082336;28;20465;-80
2022/11/20 12:30:58;;;;;;;28.13;12.37;;;18.80;52.10;;;;;;5087795;28;20445;-83
2022/11/20 12:33:42;;;;;;;22.57;13.00;;;18.60;52.50;;;;;;5087837;28;20469;-82
2022/11/20 12:36:19;;;;;;;29.50;14.00;;;18.30;52.80;;;;;;5085787;28;20461;-81
2022/11/20 12:39:03;;;;;;;23.00;13.37;;;18.10;53.20;;;;;;5088465;28;20445;-83
2022/11/20 12:47:33;;;;;;;33.93;14.33;;;17.80;53.70;;;;;;5067289;28;20442;-83
2022/11/20 12:50:03;;;;;;;26.40;15.10;;;17.70;53.80;;;;;;5067239;28;20524;-83
2022/11/20 12:52:39;;;;;;;24.93;14.57;;;17.60;53.80;;;;;;5067861;28;20443;-83
2022/11/20 12:55:24;;;;;;;25.13;14.03;;;17.50;54.00;;;;;;5067751;28;20469;-83
2022/11/20 12:57:55;;;;;;;25.90;16.13;;;17.50;54.10;;;;;;5068850;28;20454;-83